sensor_id;sensor_type;location;lat;lon;timestamp;pressure;altitude;pressure_sealevel;temperature;humidity
38630;BME280;24384;51.988;4.644;2023-02-13T00:01:57;103909.03;;;7.64;79.11
38630;BME280;24384;51.988;4.644;2023-02-13T00:04:22;103911.66;;;7.64;78.92
38630;BME280;24384;51.988;4.644;2023-02-13T00:06:47;103901.16;;;7.64;79.06
38630;BME280;24384;51.988;4.644;2023-02-13T00:09:13;103910.91;;;7.68;78.45
38630;BME280;24384;51.988;4.644;2023-02-13T00:11:38;103906.44;;;7.65;78.62
38630;BME280;24384;51.988;4.644;2023-02-13T00:14:04;103903.81;;;7.65;79.61
38630;BME280;24384;51.988;4.644;2023-02-13T00:16:29;103901.94;;;7.61;79.34
38630;BME280;24384;51.988;4.644;2023-02-13T00:18:55;103906.19;;;7.56;79.11
38630;BME280;24384;51.988;4.644;2023-02-13T00:21:20;103909.78;;;7.60;79.05
38630;BME280;24384;51.988;4.644;2023-02-13T00:23:46;103903.78;;;7.64;78.34
38630;BME280;24384;51.988;4.644;2023-02-13T00:26:13;103893.09;;;7.58;79.16
38630;BME280;24384;51.988;4.644;2023-02-13T00:28:38;103900.06;;;7.56;78.73
38630;BME280;24384;51.988;4.644;2023-02-13T00:31:10;103903.56;;;7.56;78.92
38630;BME280;24384;51.988;4.644;2023-02-13T00:33:37;103902.59;;;7.52;78.17
38630;BME280;24384;51.988;4.644;2023-02-13T00:36:08;103895.47;;;7.48;78.27
38630;BME280;24384;51.988;4.644;2023-02-13T00:38:34;103900.81;;;7.51;78.07
38630;BME280;24384;51.988;4.644;2023-02-13T00:41:00;103898.94;;;7.47;77.79
38630;BME280;24384;51.988;4.644;2023-02-13T00:43:25;103898.06;;;7.47;78.35
38630;BME280;24384;51.988;4.644;2023-02-13T00:45:50;103893.84;;;7.53;77.98
38630;BME280;24384;51.988;4.644;2023-02-13T00:48:16;103896.44;;;7.52;77.55
38630;BME280;24384;51.988;4.644;2023-02-13T00:50:41;103893.09;;;7.58;76.88
38630;BME280;24384;51.988;4.644;2023-02-13T00:53:06;103890.38;;;7.55;77.70
38630;BME280;24384;51.988;4.644;2023-02-13T00:55:32;103885.28;;;7.59;76.98
38630;BME280;24384;51.988;4.644;2023-02-13T00:57:58;103885.13;;;7.55;77.98
38630;BME280;24384;51.988;4.644;2023-02-13T01:00:23;103893.00;;;7.55;77.38
38630;BME280;24384;51.988;4.644;2023-02-13T01:02:48;103885.28;;;7.59;77.97
38630;BME280;24384;51.988;4.644;2023-02-13T01:05:13;103882.56;;;7.56;78.90
38630;BME280;24384;51.988;4.644;2023-02-13T01:07:39;103883.34;;;7.53;78.31
38630;BME280;24384;51.988;4.644;2023-02-13T01:10:05;103873.75;;;7.54;77.58
38630;BME280;24384;51.988;4.644;2023-02-13T01:12:30;103875.56;;;7.57;77.60
38630;BME280;24384;51.988;4.644;2023-02-13T01:14:56;103880.59;;;7.49;78.33
38630;BME280;24384;51.988;4.644;2023-02-13T01:17:21;103873.75;;;7.54;77.81
38630;BME280;24384;51.988;4.644;2023-02-13T01:19:46;103872.94;;;7.57;77.06
38630;BME280;24384;51.988;4.644;2023-02-13T01:22:11;103872.97;;;7.58;78.51
38630;BME280;24384;51.988;4.644;2023-02-13T01:24:37;103870.25;;;7.55;79.09
38630;BME280;24384;51.988;4.644;2023-02-13T01:27:02;103876.38;;;7.54;79.33
38630;BME280;24384;51.988;4.644;2023-02-13T01:29:28;103867.50;;;7.50;79.00
38630;BME280;24384;51.988;4.644;2023-02-13T01:31:54;103871.00;;;7.49;78.88
38630;BME280;24384;51.988;4.644;2023-02-13T01:34:19;103864.03;;;7.51;78.48
38630;BME280;24384;51.988;4.644;2023-02-13T01:36:44;103861.44;;;7.53;79.04
38630;BME280;24384;51.988;4.644;2023-02-13T01:39:11;103856.16;;;7.51;79.18
38630;BME280;24384;51.988;4.644;2023-02-13T01:41:37;103863.06;;;7.48;79.37
38630;BME280;24384;51.988;4.644;2023-02-13T01:44:03;103866.72;;;7.53;78.94
38630;BME280;24384;51.988;4.644;2023-02-13T01:46:48;103860.56;;;7.52;79.28
38630;BME280;24384;51.988;4.644;2023-02-13T01:49:20;103865.69;;;7.48;79.56
38630;BME280;24384;51.988;4.644;2023-02-13T01:51:48;103864.88;;;7.50;79.93
38630;BME280;24384;51.988;4.644;2023-02-13T01:54:22;103861.31;;;7.48;79.67
38630;BME280;24384;51.988;4.644;2023-02-13T01:56:58;103868.38;;;7.49;79.13
38630;BME280;24384;51.988;4.644;2023-02-13T01:59:28;103866.56;;;7.48;79.38
38630;BME280;24384;51.988;4.644;2023-02-13T02:01:55;103867.53;;;7.52;79.13
38630;BME280;24384;51.988;4.644;2023-02-13T02:04:27;103865.03;;;7.57;79.83
38630;BME280;24384;51.988;4.644;2023-02-13T02:06:59;103873.72;;;7.52;79.70
38630;BME280;24384;51.988;4.644;2023-02-13T02:09:29;103867.63;;;7.55;79.39
38630;BME280;24384;51.988;4.644;2023-02-13T02:14:44;103873.63;;;7.49;78.94
38630;BME280;24384;51.988;4.644;2023-02-13T02:17:10;103869.28;;;7.51;78.76
38630;BME280;24384;51.988;4.644;2023-02-13T02:19:58;103867.41;;;7.47;78.58
38630;BME280;24384;51.988;4.644;2023-02-13T02:22:52;103871.69;;;7.44;78.94
38630;BME280;24384;51.988;4.644;2023-02-13T02:37:24;103857.81;;;7.48;78.69
38630;BME280;24384;51.988;4.644;2023-02-13T02:42:59;103845.66;;;7.51;77.59
38630;BME280;24384;51.988;4.644;2023-02-13T02:48:10;103848.19;;;7.48;78.79
38630;BME280;24384;51.988;4.644;2023-02-13T02:51:06;103843.75;;;7.46;78.59
38630;BME280;24384;51.988;4.644;2023-02-13T02:53:55;103847.34;;;7.49;79.11
38630;BME280;24384;51.988;4.644;2023-02-13T02:56:30;103849.97;;;7.49;79.01
38630;BME280;24384;51.988;4.644;2023-02-13T02:59:15;103848.78;;;7.38;78.08
38630;BME280;24384;51.988;4.644;2023-02-13T03:02:01;103844.44;;;7.39;78.85
38630;BME280;24384;51.988;4.644;2023-02-13T03:04:47;103841.84;;;7.40;79.13
38630;BME280;24384;51.988;4.644;2023-02-13T03:07:32;103842.56;;;7.34;78.36
38630;BME280;24384;51.988;4.644;2023-02-13T03:10:02;103835.72;;;7.41;78.79
38630;BME280;24384;51.988;4.644;2023-02-13T03:15:35;103842.84;;;7.45;78.95
38630;BME280;24384;51.988;4.644;2023-02-13T03:18:21;103843.78;;;7.47;79.00
38630;BME280;24384;51.988;4.644;2023-02-13T03:21:13;103840.31;;;7.48;78.93
38630;BME280;24384;51.988;4.644;2023-02-13T03:27:13;103839.56;;;7.52;79.46
38630;BME280;24384;51.988;4.644;2023-02-13T03:30:18;103830.66;;;7.47;78.07
38630;BME280;24384;51.988;4.644;2023-02-13T03:33:09;103831.72;;;7.54;79.21
38630;BME280;24384;51.988;4.644;2023-02-13T03:35:49;103834.22;;;7.49;79.47
38630;BME280;24384;51.988;4.644;2023-02-13T03:39:06;103831.44;;;7.43;78.18
38630;BME280;24384;51.988;4.644;2023-02-13T03:41:39;103827.09;;;7.45;78.43
38630;BME280;24384;51.988;4.644;2023-02-13T03:44:12;103828.72;;;7.40;79.63
38630;BME280;24384;51.988;4.644;2023-02-13T03:46:44;103834.06;;;7.43;80.33
38630;BME280;24384;51.988;4.644;2023-02-13T03:49:17;103830.47;;;7.41;79.38
38630;BME280;24384;51.988;4.644;2023-02-13T03:52:10;103825.28;;;7.43;78.79
38630;BME280;24384;51.988;4.644;2023-02-13T03:54:44;103825.97;;;7.35;78.85
38630;BME280;24384;51.988;4.644;2023-02-13T03:57:31;103815.47;;;7.35;79.91
38630;BME280;24384;51.988;4.644;2023-02-13T04:00:18;103815.50;;;7.37;80.60
38630;BME280;24384;51.988;4.644;2023-02-13T04:03:12;103811.50;;;7.20;83.05
38630;BME280;24384;51.988;4.644;2023-02-13T04:05:45;103812.44;;;7.22;82.67
38630;BME280;24384;51.988;4.644;2023-02-13T04:08:12;103805.41;;;7.21;82.03
38630;BME280;24384;51.988;4.644;2023-02-13T04:10:45;103798.38;;;7.20;80.09
38630;BME280;24384;51.988;4.644;2023-02-13T04:13:27;103813.19;;;7.17;81.17
38630;BME280;24384;51.988;4.644;2023-02-13T04:16:02;103814.97;;;7.19;81.97
38630;BME280;24384;51.988;4.644;2023-02-13T04:18:31;103810.22;;;7.05;82.80
38630;BME280;24384;51.988;4.644;2023-02-13T04:21:05;103806.66;;;7.03;83.47
38630;BME280;24384;51.988;4.644;2023-02-13T04:23:30;103812.75;;;7.02;82.12
38630;BME280;24384;51.988;4.644;2023-02-13T04:25:56;103822.31;;;7.00;81.84
38630;BME280;24384;51.988;4.644;2023-02-13T04:28:24;103808.97;;;6.92;82.28
38630;BME280;24384;51.988;4.644;2023-02-13T04:30:49;103814.31;;;6.95;81.92
38630;BME280;24384;51.988;4.644;2023-02-13T04:33:14;103815.19;;;6.96;83.46
38630;BME280;24384;51.988;4.644;2023-02-13T04:35:40;103818.47;;;6.89;81.74
38630;BME280;24384;51.988;4.644;2023-02-13T04:38:05;103816.81;;;6.91;82.70
38630;BME280;24384;51.988;4.644;2023-02-13T04:40:30;103815.84;;;6.89;81.84
38630;BME280;24384;51.988;4.644;2023-02-13T04:42:55;103820.34;;;6.93;82.19
38630;BME280;24384;51.988;4.644;2023-02-13T04:45:21;103822.09;;;6.92;82.24
38630;BME280;24384;51.988;4.644;2023-02-13T04:47:50;103816.91;;;6.94;82.53
38630;BME280;24384;51.988;4.644;2023-02-13T04:50:16;103811.56;;;6.91;81.28
38630;BME280;24384;51.988;4.644;2023-02-13T04:52:42;103817.63;;;6.90;83.44
38630;BME280;24384;51.988;4.644;2023-02-13T04:55:07;103814.34;;;6.97;82.68
38630;BME280;24384;51.988;4.644;2023-02-13T04:57:32;103802.88;;;6.93;83.49
38630;BME280;24384;51.988;4.644;2023-02-13T04:59:58;103808.25;;;6.98;81.97
38630;BME280;24384;51.988;4.644;2023-02-13T05:02:23;103798.47;;;6.92;82.53
38630;BME280;24384;51.988;4.644;2023-02-13T05:04:48;103791.56;;;6.96;82.78
38630;BME280;24384;51.988;4.644;2023-02-13T05:07:14;103797.66;;;6.95;83.69
38630;BME280;24384;51.988;4.644;2023-02-13T05:09:39;103802.81;;;6.92;83.87
38630;BME280;24384;51.988;4.644;2023-02-13T05:12:04;103801.97;;;6.93;83.60
38630;BME280;24384;51.988;4.644;2023-02-13T05:14:30;103794.09;;;6.93;83.09
38630;BME280;24384;51.988;4.644;2023-02-13T05:16:55;103791.50;;;6.93;83.16
38630;BME280;24384;51.988;4.644;2023-02-13T05:19:20;103799.28;;;6.90;82.61
38630;BME280;24384;51.988;4.644;2023-02-13T05:21:45;103795.03;;;6.95;82.17
38630;BME280;24384;51.988;4.644;2023-02-13T05:24:30;103800.97;;;6.88;82.17
38630;BME280;24384;51.988;4.644;2023-02-13T05:26:55;103807.28;;;6.94;82.24
38630;BME280;24384;51.988;4.644;2023-02-13T05:29:20;103799.53;;;6.99;81.38
38630;BME280;24384;51.988;4.644;2023-02-13T05:31:50;103802.22;;;7.01;81.62
38630;BME280;24384;51.988;4.644;2023-02-13T05:34:17;103802.13;;;6.97;81.00
38630;BME280;24384;51.988;4.644;2023-02-13T05:36:42;103797.88;;;7.03;81.38
38630;BME280;24384;51.988;4.644;2023-02-13T05:39:08;103796.16;;;7.03;82.17
38630;BME280;24384;51.988;4.644;2023-02-13T05:41:33;103791.81;;;7.04;81.83
38630;BME280;24384;51.988;4.644;2023-02-13T05:43:58;103795.25;;;7.03;81.79
38630;BME280;24384;51.988;4.644;2023-02-13T05:46:24;103803.22;;;7.06;82.21
38630;BME280;24384;51.988;4.644;2023-02-13T05:48:50;103803.00;;;6.98;81.56
38630;BME280;24384;51.988;4.644;2023-02-13T05:51:16;103806.75;;;7.06;81.48
38630;BME280;24384;51.988;4.644;2023-02-13T05:53:41;103800.59;;;7.06;81.92
38630;BME280;24384;51.988;4.644;2023-02-13T05:56:06;103796.31;;;7.08;82.11
38630;BME280;24384;51.988;4.644;2023-02-13T05:58:32;103809.50;;;7.11;82.14
38630;BME280;24384;51.988;4.644;2023-02-13T06:00:58;103808.78;;;7.16;81.26
38630;BME280;24384;51.988;4.644;2023-02-13T06:03:25;103810.44;;;7.13;81.90
38630;BME280;24384;51.988;4.644;2023-02-13T06:05:52;103812.88;;;7.07;81.95
38630;BME280;24384;51.988;4.644;2023-02-13T06:08:17;103812.09;;;7.09;82.15
38630;BME280;24384;51.988;4.644;2023-02-13T06:10:43;103807.78;;;7.11;81.97
38630;BME280;24384;51.988;4.644;2023-02-13T06:13:08;103810.31;;;7.08;82.47
38630;BME280;24384;51.988;4.644;2023-02-13T06:15:33;103803.19;;;7.04;82.45
38630;BME280;24384;51.988;4.644;2023-02-13T06:17:58;103796.34;;;7.09;81.80
38630;BME280;24384;51.988;4.644;2023-02-13T06:20:24;103793.72;;;7.09;82.15
38630;BME280;24384;51.988;4.644;2023-02-13T06:22:50;103799.81;;;7.08;82.66
38630;BME280;24384;51.988;4.644;2023-02-13T06:25:16;103799.66;;;7.04;82.92
38630;BME280;24384;51.988;4.644;2023-02-13T06:27:41;103795.25;;;7.03;81.87
38630;BME280;24384;51.988;4.644;2023-02-13T06:30:07;103789.91;;;6.99;82.14
38630;BME280;24384;51.988;4.644;2023-02-13T06:32:32;103786.16;;;6.90;82.77
38630;BME280;24384;51.988;4.644;2023-02-13T06:34:58;103791.13;;;6.80;82.96
38630;BME280;24384;51.988;4.644;2023-02-13T06:37:23;103785.91;;;6.82;82.86
38630;BME280;24384;51.988;4.644;2023-02-13T06:39:48;103793.84;;;6.84;82.70
38630;BME280;24384;51.988;4.644;2023-02-13T06:42:17;103800.69;;;6.78;83.39
38630;BME280;24384;51.988;4.644;2023-02-13T06:44:43;103791.97;;;6.79;82.83
38630;BME280;24384;51.988;4.644;2023-02-13T06:47:08;103798.16;;;6.81;83.24
38630;BME280;24384;51.988;4.644;2023-02-13T06:49:33;103799.88;;;6.81;82.98
38630;BME280;24384;51.988;4.644;2023-02-13T06:51:58;103793.88;;;6.85;82.46
38630;BME280;24384;51.988;4.644;2023-02-13T06:54:24;103798.25;;;6.85;82.66
38630;BME280;24384;51.988;4.644;2023-02-13T06:56:49;103797.34;;;6.84;82.23
38630;BME280;24384;51.988;4.644;2023-02-13T06:59:14;103806.16;;;6.86;81.86
38630;BME280;24384;51.988;4.644;2023-02-13T07:01:39;103806.03;;;6.81;82.48
38630;BME280;24384;51.988;4.644;2023-02-13T07:04:05;103810.50;;;6.86;82.39
38630;BME280;24384;51.988;4.644;2023-02-13T07:06:30;103817.53;;;6.87;82.68
38630;BME280;24384;51.988;4.644;2023-02-13T07:08:55;103824.59;;;6.88;82.26
38630;BME280;24384;51.988;4.644;2023-02-13T07:11:22;103813.22;;;6.89;83.20
38630;BME280;24384;51.988;4.644;2023-02-13T07:13:48;103816.66;;;6.86;83.41
38630;BME280;24384;51.988;4.644;2023-02-13T07:16:14;103821.13;;;6.90;83.34
38630;BME280;24384;51.988;4.644;2023-02-13T07:18:39;103819.34;;;6.88;83.17
38630;BME280;24384;51.988;4.644;2023-02-13T07:21:05;103822.84;;;6.88;82.72
38630;BME280;24384;51.988;4.644;2023-02-13T07:23:30;103818.47;;;6.89;82.16
38630;BME280;24384;51.988;4.644;2023-02-13T07:25:58;103819.50;;;6.94;82.22
38630;BME280;24384;51.988;4.644;2023-02-13T07:28:24;103825.47;;;6.88;82.79
38630;BME280;24384;51.988;4.644;2023-02-13T07:30:49;103827.09;;;6.85;82.00
38630;BME280;24384;51.988;4.644;2023-02-13T07:33:15;103821.00;;;6.86;82.84
38630;BME280;24384;51.988;4.644;2023-02-13T07:35:51;103826.28;;;6.87;82.61
38630;BME280;24384;51.988;4.644;2023-02-13T07:38:17;103822.97;;;6.93;81.79
38630;BME280;24384;51.988;4.644;2023-02-13T07:40:42;103830.84;;;6.93;82.32
38630;BME280;24384;51.988;4.644;2023-02-13T07:43:08;103826.66;;;6.99;82.42
38630;BME280;24384;51.988;4.644;2023-02-13T07:45:33;103832.88;;;7.02;82.65
38630;BME280;24384;51.988;4.644;2023-02-13T07:47:58;103821.28;;;6.95;82.18
38630;BME280;24384;51.988;4.644;2023-02-13T07:50:24;103831.03;;;6.99;81.45
38630;BME280;24384;51.988;4.644;2023-02-13T07:52:58;103838.16;;;7.03;80.75
38630;BME280;24384;51.988;4.644;2023-02-13T07:55:24;103841.78;;;7.08;80.19
38630;BME280;24384;51.988;4.644;2023-02-13T07:57:50;103844.25;;;7.02;79.03
38630;BME280;24384;51.988;4.644;2023-02-13T08:00:16;103842.59;;;7.06;79.29
38630;BME280;24384;51.988;4.644;2023-02-13T08:02:42;103847.22;;;7.14;76.93
38630;BME280;24384;51.988;4.644;2023-02-13T08:05:07;103851.84;;;6.93;77.55
38630;BME280;24384;51.988;4.644;2023-02-13T08:07:33;103836.47;;;7.05;77.44
38630;BME280;24384;51.988;4.644;2023-02-13T08:09:59;103844.78;;;7.21;77.84
38630;BME280;24384;51.988;4.644;2023-02-13T08:12:43;103838.56;;;7.49;77.97
38630;BME280;24384;51.988;4.644;2023-02-13T08:15:13;103838.25;;;7.68;78.40
38630;BME280;24384;51.988;4.644;2023-02-13T08:17:38;103842.97;;;7.82;78.15
38630;BME280;24384;51.988;4.644;2023-02-13T08:20:04;103853.84;;;7.96;78.51
38630;BME280;24384;51.988;4.644;2023-02-13T08:22:33;103848.84;;;8.05;77.76
38630;BME280;24384;51.988;4.644;2023-02-13T08:24:59;103848.13;;;8.12;77.24
38630;BME280;24384;51.988;4.644;2023-02-13T08:27:25;103843.94;;;8.19;77.45
38630;BME280;24384;51.988;4.644;2023-02-13T08:29:50;103850.44;;;8.35;76.69
38630;BME280;24384;51.988;4.644;2023-02-13T08:32:16;103848.09;;;8.46;76.18
38630;BME280;24384;51.988;4.644;2023-02-13T08:34:41;103850.91;;;8.53;74.54
38630;BME280;24384;51.988;4.644;2023-02-13T08:37:07;103848.47;;;8.61;75.25
38630;BME280;24384;51.988;4.644;2023-02-13T08:39:32;103852.31;;;8.77;74.08
38630;BME280;24384;51.988;4.644;2023-02-13T08:41:57;103850.63;;;8.79;73.62
38630;BME280;24384;51.988;4.644;2023-02-13T08:44:22;103849.84;;;8.83;74.15
38630;BME280;24384;51.988;4.644;2023-02-13T08:46:48;103850.00;;;8.91;74.48
38630;BME280;24384;51.988;4.644;2023-02-13T08:49:13;103847.84;;;9.12;73.79
38630;BME280;24384;51.988;4.644;2023-02-13T08:51:38;103857.09;;;9.35;72.90
38630;BME280;24384;51.988;4.644;2023-02-13T08:54:04;103848.09;;;9.71;72.55
38630;BME280;24384;51.988;4.644;2023-02-13T08:56:29;103850.75;;;9.71;70.62
38630;BME280;24384;51.988;4.644;2023-02-13T08:58:54;103850.50;;;10.06;69.50
38630;BME280;24384;51.988;4.644;2023-02-13T09:01:20;103846.75;;;10.45;67.47
38630;BME280;24384;51.988;4.644;2023-02-13T09:03:45;103847.06;;;10.65;68.17
38630;BME280;24384;51.988;4.644;2023-02-13T09:06:10;103848.56;;;11.11;65.34
38630;BME280;24384;51.988;4.644;2023-02-13T09:08:36;103845.25;;;10.62;66.42
38630;BME280;24384;51.988;4.644;2023-02-13T09:11:03;103849.47;;;10.49;66.26
38630;BME280;24384;51.988;4.644;2023-02-13T09:13:31;103839.63;;;10.39;67.77
38630;BME280;24384;51.988;4.644;2023-02-13T09:15:59;103844.03;;;10.38;68.47
38630;BME280;24384;51.988;4.644;2023-02-13T09:18:25;103845.25;;;10.62;67.25
38630;BME280;24384;51.988;4.644;2023-02-13T09:20:59;103849.81;;;10.19;67.85
38630;BME280;24384;51.988;4.644;2023-02-13T09:23:24;103846.94;;;10.03;67.46
38630;BME280;24384;51.988;4.644;2023-02-13T09:25:50;103859.25;;;10.04;67.95
38630;BME280;24384;51.988;4.644;2023-02-13T09:28:15;103848.56;;;9.95;68.34
38630;BME280;24384;51.988;4.644;2023-02-13T09:30:40;103855.69;;;10.01;68.98
38630;BME280;24384;51.988;4.644;2023-02-13T09:33:09;103859.53;;;10.20;67.56
38630;BME280;24384;51.988;4.644;2023-02-13T09:35:35;103859.69;;;10.31;69.92
38630;BME280;24384;51.988;4.644;2023-02-13T09:38:00;103861.78;;;10.47;67.40
38630;BME280;24384;51.988;4.644;2023-02-13T09:40:38;103860.41;;;10.74;66.33
38630;BME280;24384;51.988;4.644;2023-02-13T09:43:22;103856.06;;;10.79;66.57
38630;BME280;24384;51.988;4.644;2023-02-13T09:45:50;103851.53;;;10.70;66.19
38630;BME280;24384;51.988;4.644;2023-02-13T09:48:28;103852.59;;;10.82;67.26
38630;BME280;24384;51.988;4.644;2023-02-13T09:50:54;103849.59;;;11.24;65.27
38630;BME280;24384;51.988;4.644;2023-02-13T09:53:22;103855.94;;;11.37;66.12
38630;BME280;24384;51.988;4.644;2023-02-13T09:55:59;103851.50;;;11.36;64.35
38630;BME280;24384;51.988;4.644;2023-02-13T10:00:55;103850.72;;;11.42;63.13
38630;BME280;24384;51.988;4.644;2023-02-13T10:06:03;103844.88;;;11.77;64.97
38630;BME280;24384;51.988;4.644;2023-02-13T10:08:46;103839.03;;;12.07;61.96
38630;BME280;24384;51.988;4.644;2023-02-13T10:16:31;103840.91;;;12.17;62.37
38630;BME280;24384;51.988;4.644;2023-02-13T10:21:48;103845.78;;;12.94;58.59
38630;BME280;24384;51.988;4.644;2023-02-13T10:24:34;103836.09;;;12.95;58.27
38630;BME280;24384;51.988;4.644;2023-02-13T10:27:11;103831.06;;;13.96;56.41
38630;BME280;24384;51.988;4.644;2023-02-13T10:29:46;103832.78;;;14.50;54.39
38630;BME280;24384;51.988;4.644;2023-02-13T10:32:48;103831.94;;;13.80;54.96
38630;BME280;24384;51.988;4.644;2023-02-13T10:35:23;103834.56;;;13.52;56.35
38630;BME280;24384;51.988;4.644;2023-02-13T10:37:54;103821.13;;;15.10;52.14
38630;BME280;24384;51.988;4.644;2023-02-13T10:40:20;103822.00;;;15.06;52.06
38630;BME280;24384;51.988;4.644;2023-02-13T10:43:07;103822.78;;;15.35;49.85
38630;BME280;24384;51.988;4.644;2023-02-13T10:45:42;103825.38;;;15.45;50.33
38630;BME280;24384;51.988;4.644;2023-02-13T10:50:59;103809.38;;;17.26;48.57
38630;BME280;24384;51.988;4.644;2023-02-13T10:53:42;103811.28;;;17.20;47.59
38630;BME280;24384;51.988;4.644;2023-02-13T10:56:54;103812.94;;;17.27;46.58
38630;BME280;24384;51.988;4.644;2023-02-13T11:02:00;103816.47;;;17.86;45.23
38630;BME280;24384;51.988;4.644;2023-02-13T11:04:27;103809.25;;;17.93;45.25
38630;BME280;24384;51.988;4.644;2023-02-13T11:06:59;103809.47;;;19.20;43.87
38630;BME280;24384;51.988;4.644;2023-02-13T11:09:25;103798.78;;;20.92;40.51
38630;BME280;24384;51.988;4.644;2023-02-13T11:11:51;103804.44;;;20.83;38.19
38630;BME280;24384;51.988;4.644;2023-02-13T11:14:19;103794.06;;;20.70;37.73
38630;BME280;24384;51.988;4.644;2023-02-13T11:16:48;103781.72;;;22.55;36.88
38630;BME280;24384;51.988;4.644;2023-02-13T11:19:23;103787.56;;;19.80;38.90
38630;BME280;24384;51.988;4.644;2023-02-13T11:21:54;103786.16;;;20.66;38.86
38630;BME280;24384;51.988;4.644;2023-02-13T11:24:25;103782.25;;;19.40;40.10
38630;BME280;24384;51.988;4.644;2023-02-13T11:26:56;103773.34;;;18.11;43.23
38630;BME280;24384;51.988;4.644;2023-02-13T11:29:28;103764.13;;;20.86;39.53
38630;BME280;24384;51.988;4.644;2023-02-13T11:32:24;103764.88;;;20.89;38.02
38630;BME280;24384;51.988;4.644;2023-02-13T11:34:48;103750.03;;;21.62;36.47
38630;BME280;24384;51.988;4.644;2023-02-13T11:37:24;103751.16;;;22.07;36.67
38630;BME280;24384;51.988;4.644;2023-02-13T11:39:53;103763.00;;;20.93;36.58
38630;BME280;24384;51.988;4.644;2023-02-13T11:42:24;103748.97;;;20.22;38.61
38630;BME280;24384;51.988;4.644;2023-02-13T11:44:52;103744.16;;;20.33;37.38
38630;BME280;24384;51.988;4.644;2023-02-13T11:47:31;103746.25;;;19.89;39.22
38630;BME280;24384;51.988;4.644;2023-02-13T11:49:57;103743.38;;;21.99;37.54
38630;BME280;24384;51.988;4.644;2023-02-13T11:52:25;103748.78;;;20.60;36.71
38630;BME280;24384;51.988;4.644;2023-02-13T11:54:59;103738.50;;;22.36;35.99
38630;BME280;24384;51.988;4.644;2023-02-13T11:57:35;103741.13;;;21.62;34.17
38630;BME280;24384;51.988;4.644;2023-02-13T12:02:49;103739.44;;;21.03;35.36
38630;BME280;24384;51.988;4.644;2023-02-13T12:05:22;103739.19;;;21.10;35.07
38630;BME280;24384;51.988;4.644;2023-02-13T12:07:48;103739.41;;;20.12;37.77
38630;BME280;24384;51.988;4.644;2023-02-13T12:12:53;103737.09;;;20.31;38.97
38630;BME280;24384;51.988;4.644;2023-02-13T12:15:27;103737.31;;;19.90;38.89
38630;BME280;24384;51.988;4.644;2023-02-13T12:18:58;103729.84;;;20.34;42.53
38630;BME280;24384;51.988;4.644;2023-02-13T12:24:07;103738.13;;;20.27;37.46
38630;BME280;24384;51.988;4.644;2023-02-13T12:26:43;103733.56;;;19.61;39.78
38630;BME280;24384;51.988;4.644;2023-02-13T12:29:36;103730.88;;;17.97;41.95
38630;BME280;24384;51.988;4.644;2023-02-13T12:32:19;103720.22;;;18.86;41.97
38630;BME280;24384;51.988;4.644;2023-02-13T12:35:06;103721.47;;;18.67;45.28
38630;BME280;24384;51.988;4.644;2023-02-13T12:38:00;103718.75;;;18.70;45.01
38630;BME280;24384;51.988;4.644;2023-02-13T12:40:38;103713.50;;;19.43;42.64
38630;BME280;24384;51.988;4.644;2023-02-13T12:49:01;103715.06;;;17.85;48.77
38630;BME280;24384;51.988;4.644;2023-02-13T12:51:42;103702.66;;;18.71;47.38
38630;BME280;24384;51.988;4.644;2023-02-13T13:02:57;103698.00;;;17.42;48.36
38630;BME280;24384;51.988;4.644;2023-02-13T13:05:42;103692.72;;;17.38;53.36
38630;BME280;24384;51.988;4.644;2023-02-13T13:08:26;103697.19;;;16.76;49.04
38630;BME280;24384;51.988;4.644;2023-02-13T13:19:27;103702.94;;;15.57;51.10
38630;BME280;24384;51.988;4.644;2023-02-13T13:22:20;103697.53;;;15.65;52.18
38630;BME280;24384;51.988;4.644;2023-02-13T13:25:08;103701.75;;;14.63;53.75
38630;BME280;24384;51.988;4.644;2023-02-13T13:27:43;103700.06;;;14.35;53.48
38630;BME280;24384;51.988;4.644;2023-02-13T13:30:22;103687.84;;;13.69;54.73
38630;BME280;24384;51.988;4.644;2023-02-13T13:33:22;103693.94;;;13.00;56.33
38630;BME280;24384;51.988;4.644;2023-02-13T13:35:59;103689.53;;;13.23;58.20
38630;BME280;24384;51.988;4.644;2023-02-13T13:38:50;103686.84;;;13.03;59.68
38630;BME280;24384;51.988;4.644;2023-02-13T13:51:50;103669.97;;;12.63;61.64
38630;BME280;24384;51.988;4.644;2023-02-13T13:59:54;103666.25;;;12.16;60.28
38630;BME280;24384;51.988;4.644;2023-02-13T14:05:24;103660.91;;;12.04;61.26
38630;BME280;24384;51.988;4.644;2023-02-13T14:07:52;103673.03;;;11.80;61.08
38630;BME280;24384;51.988;4.644;2023-02-13T14:13:00;103660.88;;;12.00;60.56
38630;BME280;24384;51.988;4.644;2023-02-13T14:18:19;103658.34;;;12.17;62.22
38630;BME280;24384;51.988;4.644;2023-02-13T14:31:24;103634.00;;;15.32;62.95
38630;BME280;24384;51.988;4.644;2023-02-13T14:34:03;103635.31;;;14.74;54.62
38630;BME280;24384;51.988;4.644;2023-02-13T14:36:43;103635.75;;;15.30;53.34
38630;BME280;24384;51.988;4.644;2023-02-13T14:39:28;103635.75;;;15.33;50.54
38630;BME280;24384;51.988;4.644;2023-02-13T14:41:58;103635.88;;;15.15;52.47
38630;BME280;24384;51.988;4.644;2023-02-13T14:44:46;103631.81;;;15.74;52.64
38630;BME280;24384;51.988;4.644;2023-02-13T14:47:21;103632.28;;;16.15;49.96
38630;BME280;24384;51.988;4.644;2023-02-13T14:49:48;103639.44;;;15.18;50.24
38630;BME280;24384;51.988;4.644;2023-02-13T14:52:18;103635.75;;;15.32;50.84
38630;BME280;24384;51.988;4.644;2023-02-13T14:54:51;103627.19;;;16.62;50.13
38630;BME280;24384;51.988;4.644;2023-02-13T14:57:22;103619.41;;;17.10;47.65
38630;BME280;24384;51.988;4.644;2023-02-13T15:00:18;103621.75;;;17.79;46.09
38630;BME280;24384;51.988;4.644;2023-02-13T15:02:53;103623.88;;;17.60;45.52
38630;BME280;24384;51.988;4.644;2023-02-13T15:05:20;103615.31;;;17.91;47.75
38630;BME280;24384;51.988;4.644;2023-02-13T15:10:41;103616.09;;;17.96;44.71
38630;BME280;24384;51.988;4.644;2023-02-13T15:13:25;103620.03;;;17.26;48.21